Time;durP1;ratioP1;P1;durP2;ratioP2;P2;SDS_P1;SDS_P2;PMS_P1;PMS_P2;Temp;Humidity;BMP_temperature;BMP_pressure;BME280_temperature;BME280_humidity;BME280_pressure;Samples;Min_cycle;Max_cycle;Signal;HPM_P1;HPM_P2
2020/12/11 00:02:25;;;;;;;10.07;7.13;;;7.80;62.00;;;;;;5057687;28;20178;-72
2020/12/11 00:04:51;;;;;;;8.93;6.47;;;7.80;62.10;;;;;;5056781;28;20032;-71
2020/12/11 00:07:16;;;;;;;9.30;6.22;;;7.80;62.00;;;;;;5055225;28;20386;-71
2020/12/11 00:09:42;;;;;;;8.68;6.38;;;7.90;61.90;;;;;;5054371;28;20067;-71
2020/12/11 00:12:08;;;;;;;9.82;6.60;;;7.90;61.80;;;;;;5055628;28;20420;-72
2020/12/11 00:14:34;;;;;;;9.80;6.90;;;7.80;61.80;;;;;;5055588;28;20025;-72
2020/12/11 00:16:59;;;;;;;18.48;8.45;;;7.90;61.70;;;;;;5055661;28;20029;-72
2020/12/11 00:19:25;;;;;;;9.00;6.57;;;7.90;61.70;;;;;;5054311;28;20021;-72
2020/12/11 00:21:51;;;;;;;11.10;7.25;;;7.90;61.60;;;;;;5055527;28;20094;-72
2020/12/11 00:24:17;;;;;;;9.70;6.50;;;7.90;61.60;;;;;;5055312;28;20471;-72
2020/12/11 00:26:45;;;;;;;10.32;6.72;;;7.90;61.50;;;;;;5054171;28;20104;-71
2020/12/11 00:29:11;;;;;;;9.98;7.28;;;7.90;61.60;;;;;;5055319;28;20029;-72
2020/12/11 00:31:38;;;;;;;11.30;7.30;;;7.90;61.50;;;;;;5055275;28;20375;-71
2020/12/11 00:34:04;;;;;;;12.70;7.97;;;7.90;61.50;;;;;;5055327;28;20017;-72
2020/12/11 00:36:29;;;;;;;11.65;7.75;;;7.90;61.50;;;;;;5055213;28;20032;-72
2020/12/11 00:38:55;;;;;;;10.15;7.18;;;7.90;61.50;;;;;;5055195;28;20490;-72
2020/12/11 00:41:21;;;;;;;11.70;7.75;;;7.90;61.60;;;;;;5054751;28;20528;-71
2020/12/11 00:43:47;;;;;;;12.88;9.30;;;7.90;61.50;;;;;;5055122;28;20029;-72
2020/12/11 00:46:13;;;;;;;12.40;7.75;;;7.90;61.50;;;;;;5055034;28;20021;-72
2020/12/11 00:48:40;;;;;;;11.00;7.35;;;7.90;61.40;;;;;;5055066;28;20043;-72
2020/12/11 00:51:05;;;;;;;12.68;7.78;;;7.90;61.40;;;;;;5054949;28;20028;-72
2020/12/11 00:53:31;;;;;;;10.27;7.03;;;7.90;61.30;;;;;;5055262;28;20021;-73
2020/12/11 00:55:57;;;;;;;9.85;7.07;;;7.90;61.30;;;;;;5054853;28;20025;-72
2020/12/11 00:58:22;;;;;;;11.82;7.40;;;7.90;61.30;;;;;;5054865;28;20479;-72
2020/12/11 01:00:48;;;;;;;13.55;8.10;;;7.90;61.40;;;;;;5054809;28;20025;-72
2020/12/11 01:03:14;;;;;;;10.18;7.03;;;7.90;61.40;;;;;;5055021;28;20028;-72
2020/12/11 01:05:40;;;;;;;11.35;7.15;;;7.90;61.40;;;;;;5053333;28;20029;-72
2020/12/11 01:08:06;;;;;;;12.80;8.23;;;7.90;61.50;;;;;;5053405;28;20112;-72
2020/12/11 01:10:33;;;;;;;13.95;8.23;;;7.90;61.40;;;;;;5054388;28;20028;-72
2020/12/11 01:12:58;;;;;;;10.40;7.53;;;7.90;61.40;;;;;;5054637;28;20087;-72
2020/12/11 01:15:24;;;;;;;11.30;7.95;;;7.90;61.50;;;;;;5053243;28;20466;-72
2020/12/11 01:17:50;;;;;;;11.60;7.50;;;7.90;61.50;;;;;;5054425;28;20059;-72
2020/12/11 01:20:17;;;;;;;12.02;8.02;;;7.90;61.50;;;;;;5053139;28;20021;-72
2020/12/11 01:22:43;;;;;;;14.18;8.65;;;7.90;61.50;;;;;;5054280;28;20029;-72
2020/12/11 01:25:09;;;;;;;13.77;8.13;;;7.90;61.50;;;;;;5054094;28;20124;-73
2020/12/11 01:27:35;;;;;;;12.68;8.73;;;8.00;61.60;;;;;;5054304;28;20028;-72
2020/12/11 01:30:00;;;;;;;13.40;8.40;;;8.00;61.40;;;;;;5054261;28;20358;-72
2020/12/11 01:32:26;;;;;;;13.93;9.15;;;8.00;61.30;;;;;;5054139;28;20075;-73
2020/12/11 01:34:52;;;;;;;14.23;8.57;;;8.00;61.30;;;;;;5054146;28;20109;-72
2020/12/11 01:37:18;;;;;;;13.63;9.15;;;8.00;61.30;;;;;;5052824;28;20028;-72
2020/12/11 01:39:43;;;;;;;12.45;8.43;;;7.90;61.30;;;;;;5052810;28;20031;-72
2020/12/11 01:42:13;;;;;;;11.60;8.18;;;8.00;61.40;;;;;;5054012;28;20100;-73
2020/12/11 01:44:52;;;;;;;12.25;8.20;;;7.90;61.50;;;;;;5053941;28;20024;-72
2020/12/11 01:47:19;;;;;;;12.15;7.85;;;7.90;61.40;;;;;;5053976;28;20121;-72
2020/12/11 01:49:48;;;;;;;14.18;8.95;;;8.00;61.50;;;;;;5053826;28;20036;-72
2020/12/11 01:52:15;;;;;;;15.35;9.45;;;8.00;61.50;;;;;;5051725;28;20025;-72
2020/12/11 01:54:42;;;;;;;12.93;8.93;;;8.00;61.40;;;;;;5053764;28;20025;-73
2020/12/11 01:57:16;;;;;;;12.88;8.60;;;8.00;61.40;;;;;;5053860;28;20040;-72
2020/12/11 01:59:43;;;;;;;11.38;7.45;;;8.00;61.30;;;;;;5053698;28;20382;-72
2020/12/11 02:02:10;;;;;;;11.55;7.50;;;8.00;61.40;;;;;;5053726;28;20037;-72
2020/12/11 02:04:37;;;;;;;13.43;8.55;;;8.00;61.40;;;;;;5052261;28;20017;-72
2020/12/11 02:07:04;;;;;;;13.05;8.20;;;8.10;61.40;;;;;;5053592;28;20025;-72
2020/12/11 02:09:35;;;;;;;16.35;10.02;;;8.10;61.40;;;;;;5053364;28;20055;-72
2020/12/11 02:12:02;;;;;;;17.73;11.15;;;8.10;61.30;;;;;;5053240;28;20028;-72
2020/12/11 02:14:28;;;;;;;17.83;12.00;;;8.10;61.10;;;;;;5053442;28;20390;-72
2020/12/11 02:16:59;;;;;;;19.33;12.13;;;8.10;61.00;;;;;;5053338;28;20025;-72
2020/12/11 02:19:29;;;;;;;19.10;12.25;;;8.10;60.90;;;;;;5053331;28;20025;-72
2020/12/11 02:21:58;;;;;;;18.95;11.63;;;8.00;60.80;;;;;;5053257;28;20028;-73
2020/12/11 02:24:23;;;;;;;16.80;11.00;;;8.00;60.80;;;;;;5053104;28;20067;-73
2020/12/11 02:27:03;;;;;;;16.73;11.10;;;8.00;60.80;;;;;;5053162;28;20389;-72
2020/12/11 02:29:29;;;;;;;17.45;11.55;;;8.00;60.80;;;;;;5053271;28;20024;-73
2020/12/11 02:31:55;;;;;;;22.25;13.60;;;8.00;60.80;;;;;;5053036;28;20470;-72
2020/12/11 02:34:22;;;;;;;20.80;13.23;;;8.00;60.90;;;;;;5053023;28;20033;-72
2020/12/11 02:36:48;;;;;;;22.33;12.63;;;8.00;60.90;;;;;;5053012;28;20028;-72
2020/12/11 02:39:14;;;;;;;22.58;13.52;;;8.00;60.90;;;;;;5052995;28;20017;-72
2020/12/11 02:41:39;;;;;;;19.27;12.48;;;8.00;60.90;;;;;;5051696;28;20131;-72
2020/12/11 02:44:05;;;;;;;19.02;12.23;;;8.00;60.90;;;;;;5052926;28;20029;-73
2020/12/11 02:46:31;;;;;;;17.55;11.65;;;8.00;61.00;;;;;;5051596;28;20035;-72
2020/12/11 02:48:57;;;;;;;17.70;11.52;;;8.00;61.00;;;;;;5051462;28;20040;-72
2020/12/11 02:51:24;;;;;;;16.88;10.88;;;8.00;61.00;;;;;;5051447;28;20029;-72
2020/12/11 02:53:50;;;;;;;17.42;10.73;;;8.00;61.10;;;;;;5052765;28;20025;-72
2020/12/11 02:56:20;;;;;;;17.88;12.18;;;8.00;61.00;;;;;;5052616;28;20087;-72
2020/12/11 02:58:47;;;;;;;20.63;11.90;;;8.00;61.00;;;;;;5052731;28;20021;-72
2020/12/11 03:01:13;;;;;;;23.23;13.48;;;8.00;60.90;;;;;;5052671;28;20386;-72
2020/12/11 03:03:39;;;;;;;21.02;12.70;;;8.10;61.00;;;;;;5052422;28;20025;-72
2020/12/11 03:06:05;;;;;;;20.65;12.95;;;8.10;60.90;;;;;;5052696;28;20432;-72
2020/12/11 03:08:30;;;;;;;23.38;13.55;;;8.10;60.90;;;;;;5052542;28;20036;-72
2020/12/11 03:10:57;;;;;;;22.50;12.52;;;8.10;60.90;;;;;;5052303;28;20419;-73
2020/12/11 03:13:22;;;;;;;34.50;16.70;;;8.10;60.80;;;;;;5051283;28;20021;-72
2020/12/11 03:15:48;;;;;;;28.48;16.33;;;8.10;60.40;;;;;;5051186;28;20542;-72
2020/12/11 03:18:14;;;;;;;32.13;17.77;;;8.10;60.10;;;;;;5051206;28;20043;-73
2020/12/11 03:20:40;;;;;;;34.22;18.60;;;8.00;59.70;;;;;;5053869;28;20098;-73
2020/12/11 03:23:06;;;;;;;35.85;19.33;;;8.00;59.70;;;;;;5054708;28;20036;-73
2020/12/11 03:25:32;;;;;;;34.60;19.60;;;8.00;59.70;;;;;;5055377;28;20045;-73
2020/12/11 03:27:58;;;;;;;37.65;21.38;;;8.00;59.70;;;;;;5054909;28;20028;-72
2020/12/11 03:30:23;;;;;;;41.58;21.63;;;7.90;59.60;;;;;;5067134;28;20130;-73
2020/12/11 03:32:49;;;;;;;35.08;19.10;;;7.90;59.70;;;;;;5052602;28;20071;-72
2020/12/11 03:35:15;;;;;;;42.85;22.23;;;7.90;59.70;;;;;;5046477;28;20025;-73
2020/12/11 03:37:41;;;;;;;36.25;20.60;;;7.90;59.70;;;;;;5034689;28;20028;-72
2020/12/11 03:40:07;;;;;;;43.30;23.48;;;7.90;59.80;;;;;;5044761;28;20470;-73
2020/12/11 03:42:33;;;;;;;41.72;22.73;;;7.90;59.80;;;;;;5037931;28;20030;-73
2020/12/11 03:44:59;;;;;;;40.97;22.40;;;7.80;59.70;;;;;;5047919;28;20040;-72
2020/12/11 03:47:25;;;;;;;46.05;24.60;;;7.80;59.80;;;;;;5031046;28;20041;-74
2020/12/11 03:49:51;;;;;;;43.00;22.85;;;7.80;59.70;;;;;;5032401;28;20109;-73
2020/12/11 03:52:16;;;;;;;47.67;25.48;;;7.80;59.80;;;;;;5032418;28;20108;-73
2020/12/11 03:54:42;;;;;;;43.95;23.48;;;7.80;59.70;;;;;;5032641;28;20097;-73
2020/12/11 03:57:08;;;;;;;39.67;21.67;;;7.80;59.70;;;;;;5032407;28;20096;-73
2020/12/11 03:59:34;;;;;;;42.65;23.27;;;7.80;59.70;;;;;;5032439;28;20429;-73
2020/12/11 04:02:00;;;;;;;49.33;25.40;;;7.80;59.60;;;;;;5040849;28;20029;-73
2020/12/11 04:04:25;;;;;;;46.03;23.75;;;7.80;59.50;;;;;;5052468;28;20123;-73
2020/12/11 04:06:51;;;;;;;41.05;21.63;;;7.80;59.40;;;;;;5050679;28;20025;-73
2020/12/11 04:09:17;;;;;;;35.22;20.45;;;7.80;59.60;;;;;;5051232;28;20025;-73
2020/12/11 04:11:43;;;;;;;40.20;22.15;;;7.80;59.70;;;;;;5051350;28;20036;-73
2020/12/11 04:14:08;;;;;;;43.00;23.35;;;7.80;59.70;;;;;;5049454;28;20036;-73
2020/12/11 04:16:34;;;;;;;44.47;23.58;;;7.80;59.60;;;;;;5054601;28;20025;-72
2020/12/11 04:19:02;;;;;;;40.70;21.65;;;7.80;59.60;;;;;;5055242;28;20386;-73
2020/12/11 04:21:28;;;;;;;39.75;20.80;;;7.80;59.50;;;;;;5055036;28;20033;-73
2020/12/11 04:23:53;;;;;;;39.47;20.02;;;7.80;59.50;;;;;;5056111;28;20049;-73
2020/12/11 04:26:19;;;;;;;40.13;21.17;;;7.80;59.60;;;;;;5055067;28;20033;-73
2020/12/11 04:28:45;;;;;;;45.30;23.30;;;7.80;59.60;;;;;;5056315;28;20486;-72
2020/12/11 04:31:11;;;;;;;44.60;20.92;;;7.80;60.20;;;;;;5056111;28;20024;-72
2020/12/11 04:33:37;;;;;;;40.88;21.85;;;7.80;59.40;;;;;;5056443;28;20099;-72
2020/12/11 04:36:06;;;;;;;44.70;21.60;;;7.80;59.40;;;;;;5056087;28;20017;-72
2020/12/11 04:38:32;;;;;;;38.72;20.58;;;7.80;59.40;;;;;;5054836;28;20048;-72
2020/12/11 04:41:02;;;;;;;37.67;19.80;;;7.80;59.50;;;;;;5054698;28;20021;-72
2020/12/11 04:43:28;;;;;;;42.13;21.30;;;7.80;59.50;;;;;;5055989;28;20025;-73
2020/12/11 04:45:54;;;;;;;38.13;20.65;;;7.80;59.50;;;;;;5054651;28;20475;-72
2020/12/11 04:48:20;;;;;;;40.42;21.67;;;7.80;59.50;;;;;;5055833;28;20039;-72
2020/12/11 04:50:46;;;;;;;44.42;21.88;;;7.80;59.50;;;;;;5055815;28;20025;-73
2020/12/11 04:53:16;;;;;;;37.63;19.52;;;7.80;59.30;;;;;;5055705;28;20170;-72
2020/12/11 04:55:43;;;;;;;40.60;20.88;;;7.80;59.40;;;;;;5056037;28;20021;-73
2020/12/11 04:58:14;;;;;;;37.20;19.80;;;7.80;59.40;;;;;;5054421;28;20102;-73
2020/12/11 05:00:41;;;;;;;40.33;20.35;;;7.80;59.50;;;;;;5055534;28;20025;-73
2020/12/11 05:03:13;;;;;;;36.63;19.75;;;7.80;59.50;;;;;;5055575;28;20029;-73
2020/12/11 05:05:39;;;;;;;32.58;17.67;;;7.80;59.50;;;;;;5055736;28;20027;-73
2020/12/11 05:08:19;;;;;;;32.20;16.88;;;7.80;60.20;;;;;;5054502;28;20383;-71
2020/12/11 05:10:46;;;;;;;29.05;15.57;;;7.80;59.50;;;;;;5055367;28;20025;-73
2020/12/11 05:13:22;;;;;;;30.92;16.63;;;7.80;59.50;;;;;;5055692;28;20044;-74
2020/12/11 05:16:10;;;;;;;33.53;17.35;;;7.80;59.50;;;;;;5055752;28;20359;-73
2020/12/11 05:18:37;;;;;;;33.25;17.17;;;7.80;59.50;;;;;;5055423;28;20096;-73
2020/12/11 05:21:18;;;;;;;35.13;18.02;;;7.80;59.40;;;;;;5055543;28;20025;-73
2020/12/11 05:24:03;;;;;;;31.45;16.88;;;7.80;59.40;;;;;;5053756;28;20506;-73
2020/12/11 05:26:31;;;;;;;34.85;16.80;;;7.80;59.40;;;;;;5053979;28;20389;-74
2020/12/11 05:28:58;;;;;;;30.75;16.15;;;7.80;59.20;;;;;;5054984;28;20025;-73
2020/12/11 05:31:24;;;;;;;30.00;16.98;;;7.80;59.30;;;;;;5055347;28;20082;-74
2020/12/11 05:34:06;;;;;;;44.05;21.30;;;7.80;59.30;;;;;;5055250;28;20024;-73
2020/12/11 05:36:46;;;;;;;34.60;19.25;;;7.80;59.30;;;;;;5054994;28;20021;-73
2020/12/11 05:39:12;;;;;;;40.90;20.08;;;7.80;59.20;;;;;;5053555;28;20180;-73
2020/12/11 05:41:38;;;;;;;36.63;19.35;;;7.80;59.10;;;;;;5053505;28;20040;-73
2020/12/11 05:44:22;;;;;;;45.95;27.10;;;7.80;59.20;;;;;;5054753;28;20056;-73
2020/12/11 05:46:48;;;;;;;31.35;16.10;;;7.70;59.10;;;;;;5054840;28;20021;-73
2020/12/11 05:49:25;;;;;;;27.00;13.93;;;7.70;59.20;;;;;;5054792;28;20025;-73
2020/12/11 05:52:12;;;;;;;24.58;14.23;;;7.70;59.30;;;;;;5054595;28;20383;-73
2020/12/11 05:54:46;;;;;;;29.95;16.02;;;7.70;59.40;;;;;;5053431;28;20025;-73
2020/12/11 05:57:14;;;;;;;35.00;16.50;;;7.70;59.40;;;;;;5054651;28;20017;-71
2020/12/11 05:59:41;;;;;;;34.78;16.63;;;7.70;59.30;;;;;;5053067;28;20040;-73
2020/12/11 06:02:07;;;;;;;25.70;14.82;;;7.70;59.20;;;;;;5053275;28;20178;-73
2020/12/11 06:04:33;;;;;;;24.17;14.85;;;7.70;59.20;;;;;;5053059;28;20431;-73
2020/12/11 06:06:59;;;;;;;22.83;14.32;;;7.70;59.10;;;;;;5054435;28;20102;-74
2020/12/11 06:09:34;;;;;;;19.90;12.73;;;7.70;59.10;;;;;;5054244;28;20470;-73
2020/12/11 06:12:00;;;;;;;18.85;12.18;;;7.70;59.10;;;;;;5053051;28;20032;-73
2020/12/11 06:14:42;;;;;;;15.80;10.90;;;7.70;59.00;;;;;;5054365;28;20100;-75
2020/12/11 06:17:09;;;;;;;18.10;11.13;;;7.70;58.90;;;;;;5054197;28;20025;-73
2020/12/11 06:19:39;;;;;;;15.68;11.23;;;7.70;59.00;;;;;;5054122;28;20025;-73
2020/12/11 06:22:07;;;;;;;18.55;12.77;;;7.70;59.00;;;;;;5054722;28;20036;-73
2020/12/11 06:24:33;;;;;;;17.30;11.57;;;7.70;59.00;;;;;;5053843;28;20045;-73
2020/12/11 06:26:59;;;;;;;16.48;11.30;;;7.70;59.00;;;;;;5054083;28;20021;-74
2020/12/11 06:29:28;;;;;;;17.88;12.18;;;7.70;59.10;;;;;;5052651;28;20025;-71
2020/12/11 06:31:54;;;;;;;20.60;13.75;;;7.70;59.10;;;;;;5052473;28;20057;-71
2020/12/11 06:34:21;;;;;;;18.90;12.60;;;7.70;59.00;;;;;;5053674;28;20067;-71
2020/12/11 06:36:56;;;;;;;22.25;15.52;;;7.70;59.00;;;;;;5053844;28;20475;-71
2020/12/11 06:39:43;;;;;;;20.40;13.40;;;7.70;58.90;;;;;;5053700;28;20032;-71
2020/12/11 06:42:30;;;;;;;25.73;16.63;;;7.70;58.90;;;;;;5053749;28;20073;-74
2020/12/11 06:45:19;;;;;;;23.25;14.13;;;7.70;58.90;;;;;;5049814;28;20490;-71
2020/12/11 06:47:50;;;;;;;21.38;13.90;;;7.70;58.80;;;;;;5052186;28;20128;-71
2020/12/11 06:50:17;;;;;;;19.15;12.60;;;7.70;58.70;;;;;;5053648;28;20021;-72
2020/12/11 06:52:44;;;;;;;17.88;11.95;;;7.70;58.80;;;;;;5051949;28;20031;-72
2020/12/11 06:55:10;;;;;;;20.13;13.45;;;7.70;58.80;;;;;;5052436;28;20112;-72
2020/12/11 06:57:38;;;;;;;22.88;13.45;;;7.70;58.70;;;;;;5053661;28;20475;-72
2020/12/11 07:00:34;;;;;;;22.08;13.77;;;7.70;58.80;;;;;;5052061;28;20108;-71
2020/12/11 07:03:18;;;;;;;24.20;13.52;;;7.70;58.80;;;;;;5048733;28;20044;-71
2020/12/11 07:05:45;;;;;;;22.85;13.10;;;7.60;58.60;;;;;;5053725;28;20024;-71
2020/12/11 07:08:14;;;;;;;23.63;12.57;;;7.60;58.50;;;;;;5053469;28;20021;-72
2020/12/11 07:10:43;;;;;;;28.23;15.93;;;7.60;58.60;;;;;;5053279;28;20024;-71
2020/12/11 07:13:09;;;;;;;24.52;14.02;;;7.60;58.60;;;;;;5053519;28;20033;-71
2020/12/11 07:15:36;;;;;;;21.80;12.10;;;7.60;58.80;;;;;;5053279;28;20025;-71
2020/12/11 07:18:15;;;;;;;22.48;13.48;;;7.50;58.80;;;;;;5052034;28;20029;-71
2020/12/11 07:20:53;;;;;;;18.98;11.73;;;7.50;58.70;;;;;;5053519;28;20530;-71
2020/12/11 07:23:19;;;;;;;29.63;17.95;;;7.50;58.70;;;;;;5051637;28;20031;-72
2020/12/11 07:25:49;;;;;;;24.92;13.68;;;7.50;58.70;;;;;;5053569;28;20029;-71
2020/12/11 07:28:15;;;;;;;22.27;12.52;;;7.40;58.70;;;;;;5051887;28;20382;-72
2020/12/11 07:30:50;;;;;;;22.70;13.63;;;7.40;58.70;;;;;;5053103;28;20028;-72
2020/12/11 07:33:17;;;;;;;20.27;12.73;;;7.40;58.80;;;;;;5053430;28;20104;-72
2020/12/11 07:35:47;;;;;;;20.90;12.82;;;7.40;58.80;;;;;;5051780;28;20059;-72
2020/12/11 07:38:16;;;;;;;19.77;13.25;;;7.40;59.00;;;;;;5051788;28;20021;-72
2020/12/11 07:40:42;;;;;;;20.95;12.80;;;7.40;59.00;;;;;;5053017;28;20016;-72
2020/12/11 07:43:11;;;;;;;19.38;12.57;;;7.30;59.00;;;;;;5053340;28;20029;-72
2020/12/11 07:45:38;;;;;;;20.40;12.88;;;7.30;59.00;;;;;;5053229;28;20359;-72
2020/12/11 07:48:04;;;;;;;20.77;12.77;;;7.30;59.20;;;;;;5051780;28;20028;-72
2020/12/11 07:50:31;;;;;;;20.33;12.10;;;7.30;59.20;;;;;;5053331;28;20033;-72
2020/12/11 07:52:58;;;;;;;18.15;11.82;;;7.40;59.30;;;;;;5056769;28;20097;-72
2020/12/11 07:55:29;;;;;;;16.60;11.18;;;7.40;59.30;;;;;;5056722;28;20386;-72
2020/12/11 07:57:57;;;;;;;17.65;11.60;;;7.40;59.20;;;;;;5055838;28;20385;-72
2020/12/11 08:00:23;;;;;;;17.23;11.15;;;7.40;59.00;;;;;;5055465;28;20029;-72
2020/12/11 08:02:53;;;;;;;15.35;10.52;;;7.40;59.10;;;;;;5055424;28;20485;-73
2020/12/11 08:05:21;;;;;;;17.85;10.68;;;7.40;59.20;;;;;;5056616;28;20025;-72
2020/12/11 08:07:51;;;;;;;18.55;10.60;;;7.40;59.20;;;;;;5056476;28;20101;-72
2020/12/11 08:10:32;;;;;;;16.30;10.95;;;7.40;59.20;;;;;;5056908;28;20021;-72
2020/12/11 08:13:16;;;;;;;20.75;12.75;;;7.40;59.30;;;;;;5056752;28;20032;-72
2020/12/11 08:15:44;;;;;;;20.77;13.35;;;7.40;59.20;;;;;;5056647;28;20029;-72
2020/12/11 08:18:23;;;;;;;18.45;11.20;;;7.50;59.10;;;;;;5056593;28;20025;-72
2020/12/11 08:20:59;;;;;;;15.32;9.77;;;7.40;59.00;;;;;;5056700;28;20023;-72
2020/12/11 08:23:35;;;;;;;16.08;9.40;;;7.50;59.10;;;;;;5056152;28;20067;-72
2020/12/11 08:26:05;;;;;;;15.02;9.73;;;7.40;59.10;;;;;;5056527;28;20035;-72
2020/12/11 08:28:31;;;;;;;17.10;10.13;;;7.40;59.10;;;;;;5056165;28;20017;-72
2020/12/11 08:31:10;;;;;;;18.25;10.02;;;7.40;59.10;;;;;;5056069;28;20021;-72
2020/12/11 08:33:36;;;;;;;16.77;10.60;;;7.40;59.20;;;;;;5058985;28;20360;-72
2020/12/11 08:36:02;;;;;;;16.25;9.82;;;7.40;59.20;;;;;;5060662;28;20025;-72
2020/12/11 08:38:28;;;;;;;15.65;10.10;;;7.40;59.10;;;;;;5058877;28;20032;-72
2020/12/11 08:40:53;;;;;;;16.42;9.93;;;7.40;59.00;;;;;;5047831;28;20382;-72
2020/12/11 08:43:30;;;;;;;15.63;9.95;;;7.40;58.90;;;;;;5041596;28;20032;-72
2020/12/11 08:46:14;;;;;;;29.00;15.77;;;7.40;59.00;;;;;;5052035;28;20022;-71
2020/12/11 08:49:02;;;;;;;22.90;10.43;;;7.30;59.20;;;;;;5046826;28;20024;-72
2020/12/11 08:51:29;;;;;;;18.40;9.98;;;7.30;59.10;;;;;;5051362;28;20029;-73
2020/12/11 08:53:56;;;;;;;15.75;9.35;;;7.30;59.20;;;;;;5037441;28;20018;-73
2020/12/11 08:56:22;;;;;;;15.85;10.25;;;7.30;59.20;;;;;;5056054;28;20021;-73
2020/12/11 08:58:48;;;;;;;17.10;10.82;;;7.30;59.20;;;;;;5071830;28;20021;-73
2020/12/11 09:01:14;;;;;;;15.25;10.00;;;7.30;59.10;;;;;;5055093;28;20040;-73
2020/12/11 09:03:39;;;;;;;17.55;11.13;;;7.30;59.20;;;;;;5064231;28;20033;-73
2020/12/11 09:06:05;;;;;;;14.93;9.57;;;7.20;59.30;;;;;;5065431;28;20025;-73
2020/12/11 09:08:31;;;;;;;17.55;10.73;;;7.30;59.50;;;;;;5055464;28;20040;-73
2020/12/11 09:10:56;;;;;;;15.90;9.77;;;7.30;59.40;;;;;;5055309;28;20155;-73
2020/12/11 09:13:22;;;;;;;14.43;8.98;;;7.30;59.50;;;;;;5055920;28;20022;-73
2020/12/11 09:15:48;;;;;;;16.42;10.07;;;7.30;59.40;;;;;;5055382;28;20417;-73
2020/12/11 09:18:13;;;;;;;14.98;9.20;;;7.30;59.50;;;;;;5055292;28;20382;-72
2020/12/11 09:20:39;;;;;;;14.55;9.40;;;7.30;59.50;;;;;;5055136;28;20478;-72
2020/12/11 09:23:05;;;;;;;12.65;8.68;;;7.40;59.40;;;;;;5054295;28;20029;-72
2020/12/11 09:25:31;;;;;;;13.68;7.70;;;7.40;59.30;;;;;;5053660;28;20077;-72
2020/12/11 09:27:56;;;;;;;10.68;6.65;;;7.40;59.20;;;;;;5055125;28;20060;-72
2020/12/11 09:30:29;;;;;;;13.63;6.85;;;7.40;59.20;;;;;;5053870;28;20049;-73
2020/12/11 09:32:59;;;;;;;15.57;8.25;;;7.40;59.30;;;;;;5055279;28;20021;-72
2020/12/11 09:35:27;;;;;;;11.10;6.63;;;7.50;59.20;;;;;;5055527;28;20086;-72
2020/12/11 09:37:56;;;;;;;11.30;6.80;;;7.50;59.00;;;;;;5054927;28;20048;-72
2020/12/11 09:54:14;;;;;;;9.30;5.97;;;7.50;58.60;;;;;;5043115;28;20059;-72
2020/12/11 09:56:39;;;;;;;10.45;6.20;;;7.50;58.60;;;;;;5032581;28;20033;-72
2020/12/11 10:04:08;;;;;;;11.48;5.68;;;7.60;58.50;;;;;;5031667;28;20095;-72
2020/12/11 10:06:33;;;;;;;15.80;5.25;;;7.60;58.50;;;;;;5032518;28;20022;-72
2020/12/11 10:08:59;;;;;;;10.30;6.20;;;7.70;58.50;;;;;;5032482;28;20069;-72
2020/12/11 10:11:25;;;;;;;8.43;5.40;;;7.70;58.20;;;;;;5032256;28;20026;-72
2020/12/11 10:13:55;;;;;;;17.35;12.35;;;7.70;58.00;;;;;;5031934;28;20100;-72
2020/12/11 10:16:21;;;;;;;6.53;4.60;;;7.70;57.90;;;;;;5032382;28;20071;-72
2020/12/11 10:18:46;;;;;;;6.60;4.60;;;7.80;57.70;;;;;;5046706;28;20037;-72
2020/12/11 10:21:12;;;;;;;6.68;4.82;;;7.80;57.50;;;;;;5050107;28;20080;-72
2020/12/11 10:23:38;;;;;;;9.32;5.07;;;7.80;57.70;;;;;;5053198;28;20465;-72
2020/12/11 10:26:05;;;;;;;9.70;5.70;;;7.90;57.80;;;;;;5053507;28;20033;-72
2020/12/11 10:28:31;;;;;;;8.48;5.30;;;7.90;57.40;;;;;;5057386;28;20049;-72
2020/12/11 10:30:57;;;;;;;9.40;5.53;;;7.90;57.30;;;;;;5053837;28;20025;-72
2020/12/11 10:33:23;;;;;;;7.68;5.22;;;7.90;57.40;;;;;;5053692;28;20040;-72
2020/12/11 10:35:49;;;;;;;7.22;5.03;;;8.00;57.10;;;;;;5049703;28;20475;-72
2020/12/11 10:38:15;;;;;;;9.70;5.93;;;8.00;57.30;;;;;;5069106;28;20029;-72
2020/12/11 10:40:41;;;;;;;12.70;7.43;;;8.00;57.10;;;;;;5073792;28;20019;-72
2020/12/11 10:43:07;;;;;;;29.88;13.38;;;8.00;57.00;;;;;;5053553;28;20041;-72
2020/12/11 10:45:33;;;;;;;15.50;8.45;;;8.10;57.20;;;;;;5053888;28;20021;-72
2020/12/11 10:47:58;;;;;;;12.43;7.72;;;8.10;57.00;;;;;;5054577;28;20057;-73
2020/12/11 10:50:24;;;;;;;11.82;6.25;;;8.10;56.70;;;;;;5052209;28;20029;-73
2020/12/11 10:52:50;;;;;;;9.75;5.95;;;8.10;56.70;;;;;;5053362;28;20386;-72
2020/12/11 10:55:15;;;;;;;8.60;5.78;;;8.20;56.50;;;;;;5053202;28;20021;-73
2020/12/11 10:57:41;;;;;;;8.23;5.45;;;8.20;56.60;;;;;;5053614;28;20384;-73
2020/12/11 11:00:07;;;;;;;8.68;6.05;;;8.20;56.90;;;;;;5053477;28;20048;-74
2020/12/11 11:02:32;;;;;;;9.32;5.72;;;8.30;56.90;;;;;;5053525;28;20470;-73
2020/12/11 11:04:58;;;;;;;9.90;5.40;;;8.30;56.40;;;;;;5052146;28;20124;-73
2020/12/11 11:07:28;;;;;;;10.75;5.68;;;8.30;56.40;;;;;;5053457;28;20029;-73
2020/12/11 11:13:03;;;;;;;6.93;4.75;;;8.40;56.50;;;;;;5053960;28;20021;-73
2020/12/11 11:28:04;;;;;;;15.18;8.35;;;8.70;56.40;;;;;;5077737;28;20032;-73
2020/12/11 11:30:33;;;;;;;9.65;6.35;;;8.80;56.40;;;;;;5077079;28;20025;-73
2020/12/11 11:32:59;;;;;;;9.00;5.85;;;8.80;55.90;;;;;;5088786;28;20502;-72
2020/12/11 11:35:28;;;;;;;9.38;5.07;;;8.90;55.60;;;;;;5050442;28;20051;-73
2020/12/11 11:37:54;;;;;;;8.32;5.45;;;8.90;55.60;;;;;;5052331;28;20029;-73
2020/12/11 11:40:20;;;;;;;24.45;8.98;;;8.90;54.90;;;;;;5057171;28;20025;-73
2020/12/11 11:42:46;;;;;;;16.52;9.02;;;8.90;54.50;;;;;;5056864;28;20029;-73
2020/12/11 11:45:16;;;;;;;8.23;4.78;;;8.90;54.50;;;;;;5072453;28;20025;-72
2020/12/11 11:47:45;;;;;;;9.18;5.88;;;8.90;54.50;;;;;;5057167;28;20025;-73
2020/12/11 11:52:39;;;;;;;8.82;3.88;;;8.90;55.10;;;;;;5050476;28;20104;-72
2020/12/11 11:55:06;;;;;;;19.05;8.27;;;9.00;54.60;;;;;;5050904;28;20078;-73
2020/12/11 11:57:32;;;;;;;32.40;6.43;;;9.00;54.70;;;;;;5056687;28;20025;-73
2020/12/11 11:59:58;;;;;;;10.50;4.25;;;9.00;54.50;;;;;;5054929;28;20017;-72
2020/12/11 12:02:24;;;;;;;6.57;4.28;;;9.00;54.20;;;;;;5057106;28;20455;-72
2020/12/11 12:04:50;;;;;;;18.42;5.13;;;9.00;54.30;;;;;;5056158;28;20108;-73
2020/12/11 12:07:15;;;;;;;6.90;4.25;;;9.00;54.10;;;;;;5056536;28;20451;-72
2020/12/11 12:09:41;;;;;;;13.57;4.45;;;9.00;53.70;;;;;;5055013;28;20029;-73
2020/12/11 12:12:07;;;;;;;8.13;4.68;;;9.00;54.00;;;;;;5055478;28;20108;-72
2020/12/11 12:14:33;;;;;;;7.65;4.20;;;9.00;54.10;;;;;;5055960;28;20367;-72
2020/12/11 12:17:02;;;;;;;10.07;4.88;;;9.10;54.40;;;;;;5055360;28;20463;-72
2020/12/11 12:19:32;;;;;;;8.57;4.05;;;9.10;54.50;;;;;;5056497;28;20048;-73
2020/12/11 12:29:47;;;;;;;13.48;5.00;;;9.30;54.20;;;;;;5056191;28;20036;-73
2020/12/11 12:32:16;;;;;;;7.03;4.20;;;9.30;53.80;;;;;;5055495;28;20033;-73
2020/12/11 12:45:14;;;;;;;8.38;4.53;;;9.30;54.00;;;;;;5056550;28;20082;-74
2020/12/11 12:47:41;;;;;;;13.98;4.72;;;9.30;54.20;;;;;;5055774;28;20062;-74
2020/12/11 12:50:08;;;;;;;7.55;4.45;;;9.30;54.20;;;;;;5055938;28;20029;-74
2020/12/11 12:52:35;;;;;;;9.55;4.75;;;9.30;54.00;;;;;;5055883;28;20025;-74
2020/12/11 12:55:01;;;;;;;7.38;5.07;;;9.30;53.70;;;;;;5056101;28;20013;-74
2020/12/11 12:57:38;;;;;;;7.30;4.07;;;9.20;53.80;;;;;;5054473;28;20024;-74
2020/12/11 13:00:20;;;;;;;14.25;4.82;;;9.20;54.00;;;;;;5055995;28;20021;-74
2020/12/11 13:05:40;;;;;;;;;;;9.20;54.20;;;;;;5051054;28;20067;-74
2020/12/11 13:08:06;;;;;;;10.23;5.00;;;9.20;54.60;;;;;;5055641;28;20320;-74
2020/12/11 13:10:33;;;;;;;8.57;4.32;;;9.20;54.10;;;;;;5055991;28;20375;-74
2020/12/11 13:12:59;;;;;;;8.60;4.68;;;9.20;53.80;;;;;;5055381;28;20036;-74
2020/12/11 13:15:24;;;;;;;10.65;6.07;;;9.10;54.00;;;;;;5054130;28;20112;-74
2020/12/11 13:17:50;;;;;;;9.18;5.60;;;9.10;54.20;;;;;;5055402;28;20021;-74
2020/12/11 13:20:26;;;;;;;9.02;4.30;;;9.10;54.30;;;;;;5055671;28;20025;-74
2020/12/11 13:27:59;;;;;;;7.57;4.40;;;9.10;54.40;;;;;;5055250;28;20386;-74
2020/12/11 13:30:24;;;;;;;5.25;3.50;;;9.10;54.50;;;;;;5055212;28;20028;-73
2020/12/11 13:32:50;;;;;;;8.98;4.78;;;9.10;54.70;;;;;;5054802;28;20025;-75
2020/12/11 13:35:16;;;;;;;6.90;4.85;;;9.10;54.70;;;;;;5054970;28;20075;-74
2020/12/11 13:37:42;;;;;;;19.30;5.10;;;9.20;54.70;;;;;;5055212;28;20029;-74
2020/12/11 13:40:07;;;;;;;12.20;5.50;;;9.10;54.50;;;;;;5055010;28;20028;-74
2020/12/11 13:42:34;;;;;;;9.82;4.65;;;9.10;54.50;;;;;;5053813;28;20028;-75
2020/12/11 13:44:59;;;;;;;6.78;4.35;;;9.10;54.50;;;;;;5053495;28;20128;-74
2020/12/11 13:47:26;;;;;;;16.40;4.47;;;9.20;54.60;;;;;;5053785;28;20056;-74
2020/12/11 13:49:52;;;;;;;7.88;4.95;;;9.20;54.90;;;;;;5054647;28;20025;-74
2020/12/11 13:52:17;;;;;;;7.75;5.38;;;9.20;54.80;;;;;;5054818;28;20035;-74